createdAt,value
2019-04-21T00:01:03.915Z,96045.63
2019-04-21T00:03:37.772Z,96038.17
2019-04-21T00:06:19.381Z,96038.39
2019-04-21T00:08:48.851Z,96044.16
2019-04-21T00:13:43.990Z,96055.66
2019-04-21T00:16:02.400Z,96056.36
2019-04-21T00:18:58.062Z,96064.45
2019-04-21T00:21:29.139Z,96059.79
2019-04-21T00:24:20.301Z,96060.31
2019-04-21T00:26:57.386Z,96060.27
2019-04-21T00:29:36.722Z,96060.91
2019-04-21T00:31:56.627Z,96054.14
2019-04-21T00:34:11.070Z,96058.94
2019-04-21T00:36:51.538Z,96049.58
2019-04-21T00:39:36.732Z,96051.69
2019-04-21T00:41:59.210Z,96049.97
2019-04-21T00:44:21.443Z,96054.92
2019-04-21T00:46:55.795Z,96054.86
2019-04-21T00:49:31.124Z,96055.72
2019-04-21T00:52:40.189Z,96049.95
2019-04-21T00:55:10.382Z,96057.12
2019-04-21T00:57:32.500Z,96057.70
2019-04-21T01:00:00.881Z,96055.57
2019-04-21T01:02:32.981Z,96059.58
2019-04-21T01:05:02.045Z,96057.27
2019-04-21T01:07:28.760Z,96044.06
2019-04-21T01:09:51.319Z,96042.55
2019-04-21T01:12:26.887Z,96039.89
2019-04-21T01:15:06.555Z,96045.44
2019-04-21T01:17:21.955Z,96042.56
2019-04-21T01:19:52.297Z,96045.06
2019-04-21T01:22:03.331Z,96044.08
2019-04-21T01:24:36.105Z,96041.61
2019-04-21T01:27:11.197Z,96040.47
2019-04-21T01:29:59.829Z,96041.56
2019-04-21T01:32:24.235Z,96043.45
2019-04-21T01:34:45.311Z,96035.21
2019-04-21T01:37:14.126Z,96033.41
2019-04-21T01:39:53.226Z,96028.62
2019-04-21T01:42:19.154Z,96037.20
2019-04-21T01:44:48.422Z,96024.27
2019-04-21T01:47:10.168Z,96018.11
2019-04-21T01:49:39.513Z,96018.46
2019-04-21T01:55:12.694Z,96016.91
2019-04-21T01:58:00.346Z,96016.73
2019-04-21T02:00:39.606Z,96007.13
2019-04-21T02:03:26.294Z,96002.09
2019-04-21T02:05:44.440Z,96001.63
2019-04-21T02:08:13.469Z,96011.72
2019-04-21T02:10:47.707Z,96004.44
2019-04-21T02:13:08.276Z,96011.37
2019-04-21T02:15:46.715Z,96008.90
2019-04-21T02:18:06.073Z,96006.47
2019-04-21T02:20:30.507Z,96006.47
2019-04-21T02:23:23.326Z,96008.59
2019-04-21T02:25:38.610Z,96010.24
2019-04-21T02:28:12.483Z,96007.52
2019-04-21T02:33:29.136Z,95996.23
2019-04-21T02:36:15.372Z,96003.05
2019-04-21T02:40:46.590Z,95997.97
2019-04-21T02:43:18.662Z,95987.41
2019-04-21T02:50:50.071Z,96007.42
2019-04-21T02:53:18.433Z,96000.97
2019-04-21T02:58:28.151Z,95995.09
2019-04-21T03:01:06.981Z,95989.27
2019-04-21T03:03:41.751Z,95990.75
2019-04-21T03:06:25.163Z,95985.30
2019-04-21T03:11:14.906Z,95995.83
2019-04-21T03:21:16.180Z,95988.62
2019-04-21T03:23:57.624Z,95980.02
2019-04-21T03:26:28.465Z,95986.27
2019-04-21T03:28:46.026Z,95992.56
2019-04-21T03:34:22.536Z,95992.70
2019-04-21T03:36:41.434Z,95994.02
2019-04-21T03:41:12.103Z,95988.48
2019-04-21T03:43:43.878Z,95987.11
2019-04-21T03:46:11.847Z,95977.91
2019-04-21T03:48:46.321Z,95978.84
2019-04-21T03:51:12.120Z,95982.14
2019-04-21T03:53:39.901Z,95976.44
2019-04-21T03:56:44.367Z,95979.09
2019-04-21T04:01:41.060Z,95974.49
2019-04-21T04:04:40.593Z,95980.26
2019-04-21T04:07:39.727Z,95980.69
2019-04-21T04:10:06.465Z,95978.39
2019-04-21T04:12:26.277Z,95975.77
2019-04-21T04:15:12.401Z,95979.25
2019-04-21T04:19:54.041Z,95975.80
2019-04-21T04:24:57.535Z,95986.70
2019-04-21T04:29:57.230Z,95984.58
2019-04-21T04:32:23.207Z,95974.63
2019-04-21T04:35:03.880Z,95970.82
2019-04-21T04:37:38.893Z,95965.88
2019-04-21T04:40:13.651Z,95965.66
2019-04-21T04:43:09.815Z,95970.23
2019-04-21T04:45:38.471Z,95975.36
2019-04-21T04:52:51.209Z,95974.12
2019-04-21T04:58:04.792Z,95974.71
2019-04-21T05:02:56.312Z,95977.67
2019-04-21T05:05:26.769Z,95980.61
2019-04-21T05:07:57.795Z,95977.29
2019-04-21T05:10:29.339Z,95975.11
2019-04-21T05:12:53.331Z,95977.14
2019-04-21T05:15:16.118Z,95969.55
2019-04-21T05:17:50.470Z,95971.91
2019-04-21T05:22:44.756Z,95967.81
2019-04-21T05:25:09.605Z,95975.40
2019-04-21T05:27:38.624Z,95973.50
2019-04-21T05:30:27.104Z,95976.20
2019-04-21T05:32:59.941Z,95976.39
2019-04-21T05:35:45.035Z,95977.58
2019-04-21T05:38:17.496Z,95969.77
2019-04-21T05:40:45.726Z,95965.64
2019-04-21T05:43:25.876Z,95960.81
2019-04-21T05:45:53.550Z,95969.59
2019-04-21T05:51:03.602Z,95963.12
2019-04-21T05:53:42.456Z,95971.91
2019-04-21T05:56:23.012Z,95961.05
2019-04-21T05:58:31.717Z,95966.22
2019-04-21T06:01:16.630Z,95960.81
2019-04-21T06:03:47.674Z,95965.88
2019-04-21T06:06:19.016Z,95959.84
2019-04-21T06:08:38.678Z,95964.42
2019-04-21T06:11:10.481Z,95963.41
2019-04-21T06:13:42.765Z,95950.19
2019-04-21T06:16:09.683Z,95951.22
2019-04-21T06:18:44.502Z,95957.97
2019-04-21T06:21:07.226Z,95953.76
2019-04-21T06:23:36.508Z,95956.63
2019-04-21T06:26:20.037Z,95955.85
2019-04-21T06:28:43.992Z,95955.08
2019-04-21T06:33:35.636Z,95950.92
2019-04-21T06:39:06.507Z,95936.27
2019-04-21T06:46:33.415Z,95938.63
2019-04-21T06:51:27.473Z,95940.17
2019-04-21T06:53:59.540Z,95941.76
2019-04-21T06:56:21.804Z,95939.20
2019-04-21T06:58:53.473Z,95950.48
2019-04-21T07:01:26.454Z,95942.21
2019-04-21T07:04:05.924Z,95939.19
2019-04-21T07:06:31.971Z,95943.66
2019-04-21T07:09:10.345Z,95940.50
2019-04-21T07:11:25.303Z,95944.48
2019-04-21T07:14:13.539Z,95947.75
2019-04-21T07:16:32.022Z,95943.22
2019-04-21T07:21:27.534Z,95935.45
2019-04-21T07:23:58.936Z,95930.27
2019-04-21T07:26:25.623Z,95923.25
2019-04-21T07:29:01.826Z,95932.28
2019-04-21T07:31:25.457Z,95924.02
2019-04-21T07:36:32.355Z,95937.77
2019-04-21T07:38:54.585Z,95929.08
2019-04-21T07:41:16.242Z,95926.81
2019-04-21T07:43:54.603Z,95928.57
2019-04-21T07:46:23.761Z,95928.89
2019-04-21T07:49:25.245Z,95923.60
2019-04-21T07:52:03.057Z,95917.87
2019-04-21T07:56:44.196Z,95915.98
2019-04-21T07:59:39.471Z,95913.35
2019-04-21T08:02:02.649Z,95912.61
2019-04-21T08:04:49.533Z,95914.76
2019-04-21T08:07:14.903Z,95908.69
2019-04-21T08:09:29.779Z,95908.84
2019-04-21T08:11:56.183Z,95901.91
2019-04-21T08:14:28.654Z,95902.04
2019-04-21T08:16:58.488Z,95893.81
2019-04-21T08:19:25.220Z,95893.95
2019-04-21T08:21:59.662Z,95892.28
2019-04-21T08:24:19.767Z,95885.37
2019-04-21T08:27:03.222Z,95881.57
2019-04-21T08:29:40.396Z,95883.76
2019-04-21T08:31:56.192Z,95886.69
2019-04-21T08:34:24.138Z,95877.86
2019-04-21T08:36:51.498Z,95881.34
2019-04-21T08:39:25.315Z,95871.47
2019-04-21T08:41:52.343Z,95874.88
2019-04-21T08:44:25.645Z,95866.83
2019-04-21T08:46:55.595Z,95865.45
2019-04-21T08:49:15.012Z,95867.81
2019-04-21T08:51:51.995Z,95861.87
2019-04-21T08:54:21.487Z,95862.91
2019-04-21T08:56:55.866Z,95856.49
2019-04-21T08:59:43.789Z,95860.34
2019-04-21T09:05:04.683Z,95850.62
2019-04-21T09:07:39.110Z,95836.09
2019-04-21T09:10:06.808Z,95833.38
2019-04-21T09:12:39.272Z,95829.59
2019-04-21T09:15:00.849Z,95819.45
2019-04-21T09:17:28.684Z,95826.63
2019-04-21T09:20:07.583Z,95813.44
2019-04-21T09:22:29.827Z,95816.12
2019-04-21T09:25:01.460Z,95811.86
2019-04-21T09:27:29.467Z,95810.84
2019-04-21T09:29:49.474Z,95806.44
2019-04-21T09:32:17.741Z,95797.78
2019-04-21T09:34:43.738Z,95801.44
2019-04-21T09:37:24.298Z,95794.59
2019-04-21T09:39:43.808Z,95795.34
2019-04-21T09:42:08.919Z,95780.66
2019-04-21T09:44:40.141Z,95776.11
2019-04-21T09:47:07.384Z,95776.77
2019-04-21T09:49:37.451Z,95779.55
2019-04-21T09:52:07.917Z,95778.27
2019-04-21T09:54:45.245Z,95774.17
2019-04-21T09:57:08.945Z,95771.59
2019-04-21T09:59:38.700Z,95762.38
2019-04-21T10:02:09.746Z,95761.34
2019-04-21T10:04:33.572Z,95756.21
2019-04-21T10:07:02.450Z,95751.15
2019-04-21T10:09:31.058Z,95755.20
2019-04-21T10:11:58.685Z,95750.23
2019-04-21T10:14:28.627Z,95747.25
2019-04-21T10:17:25.002Z,95745.15
2019-04-21T10:19:52.923Z,95736.89
2019-04-21T10:22:23.223Z,95735.59
2019-04-21T10:24:52.075Z,95732.58
2019-04-21T10:27:21.020Z,95727.14
2019-04-21T10:29:50.427Z,95722.69
2019-04-21T10:32:21.581Z,95730.36
2019-04-21T10:34:47.887Z,95729.95
2019-04-21T10:37:16.698Z,95723.77
2019-04-21T10:39:49.623Z,95719.81
2019-04-21T10:42:17.903Z,95715.45
2019-04-21T10:44:45.369Z,95708.39
2019-04-21T10:47:14.492Z,95698.20
2019-04-21T10:49:44.863Z,95703.87
2019-04-21T10:52:24.803Z,95698.17
2019-04-21T10:55:12.827Z,95690.34
2019-04-21T10:57:26.421Z,95658.84
2019-04-21T10:59:56.052Z,95685.45
2019-04-21T11:02:43.390Z,95682.98
2019-04-21T11:05:12.498Z,95680.33
2019-04-21T11:08:10.130Z,95678.14
2019-04-21T11:10:27.833Z,95673.11
2019-04-21T11:12:56.735Z,95678.28
2019-04-21T11:15:25.281Z,95663.66
2019-04-21T11:17:54.480Z,95664.63
2019-04-21T11:20:22.894Z,95664.52
2019-04-21T11:22:51.359Z,95657.90
2019-04-21T11:25:20.013Z,95654.05
2019-04-21T11:27:49.069Z,95652.43
2019-04-21T11:30:17.796Z,95650.48
2019-04-21T11:32:47.658Z,95638.57
2019-04-21T11:35:15.224Z,95642.80
2019-04-21T11:37:44.018Z,95638.16
2019-04-21T11:40:14.975Z,95644.05
2019-04-21T11:42:42.012Z,95639.16
2019-04-21T11:45:14.694Z,95637.30
2019-04-21T11:47:56.344Z,95629.58
2019-04-21T11:50:25.195Z,95634.48
2019-04-21T11:52:52.879Z,95630.75
2019-04-21T11:55:20.641Z,95635.13
2019-04-21T11:57:50.179Z,95621.18
2019-04-21T12:00:18.005Z,95629.34
2019-04-21T12:02:45.735Z,95622.90
2019-04-21T12:05:13.420Z,95625.23
2019-04-21T12:07:40.993Z,95638.70
2019-04-21T12:10:09.229Z,95626.33
2019-04-21T12:12:37.141Z,95619.64
2019-04-21T12:15:06.122Z,95624.13
2019-04-21T12:17:34.161Z,95621.89
2019-04-21T12:20:03.181Z,95612.17
2019-04-21T12:22:33.842Z,95614.55
2019-04-21T12:25:00.942Z,95615.67
2019-04-21T12:27:29.822Z,95616.02
2019-04-21T12:29:57.756Z,95607.05
2019-04-21T12:32:40.122Z,95607.93
2019-04-21T12:35:10.043Z,95603.42
2019-04-21T12:37:37.670Z,95592.80
2019-04-21T12:40:06.461Z,95594.75
2019-04-21T12:42:34.580Z,95592.06
2019-04-21T12:45:03.602Z,95582.14
2019-04-21T12:47:32.089Z,95575.94
2019-04-21T12:49:59.744Z,95579.55
2019-04-21T12:52:27.505Z,95579.77
2019-04-21T12:54:55.575Z,95581.88
2019-04-21T12:57:23.410Z,95576.38
2019-04-21T12:59:51.223Z,95574.57
2019-04-21T13:02:19.788Z,95575.68
2019-04-21T13:04:49.688Z,95574.37
2019-04-21T13:07:17.410Z,95566.14
2019-04-21T13:09:46.338Z,95569.09
2019-04-21T13:12:15.204Z,95562.88
2019-04-21T13:14:44.006Z,95564.20
2019-04-21T13:17:13.015Z,95566.71
2019-04-21T13:19:41.203Z,95565.87
2019-04-21T13:22:09.973Z,95560.69
2019-04-21T13:24:37.931Z,95557.47
2019-04-21T13:27:07.501Z,95548.89
2019-04-21T13:29:36.443Z,95552.42
2019-04-21T13:32:05.475Z,95551.13
2019-04-21T13:34:33.839Z,95540.22
2019-04-21T13:37:01.822Z,95535.41
2019-04-21T13:40:14.730Z,95536.33
2019-04-21T13:42:28.184Z,95530.41
2019-04-21T13:44:50.964Z,95544.86
2019-04-21T13:47:18.682Z,95535.02
2019-04-21T13:49:47.610Z,95532.86
2019-04-21T13:52:15.655Z,95527.85
2019-04-21T13:54:43.336Z,95529.53
2019-04-21T13:57:12.426Z,95527.46
2019-04-21T13:59:40.406Z,95521.67
2019-04-21T14:02:08.915Z,95527.00
2019-04-21T14:04:37.748Z,95521.95
2019-04-21T14:07:06.069Z,95519.27
2019-04-21T14:09:40.251Z,95515.91
2019-04-21T14:12:03.459Z,95520.33
2019-04-21T14:14:32.249Z,95509.91
2019-04-21T14:17:00.493Z,95508.42
2019-04-21T14:19:28.193Z,95508.59
2019-04-21T14:21:57.020Z,95497.96
2019-04-21T14:24:24.739Z,95507.00
2019-04-21T14:26:52.298Z,95502.50
2019-04-21T14:29:19.889Z,95501.03
2019-04-21T14:31:48.450Z,95494.78
2019-04-21T14:34:16.360Z,95499.66
2019-04-21T14:36:44.563Z,95486.19
2019-04-21T14:39:12.523Z,95488.11
2019-04-21T14:41:40.438Z,95484.00
2019-04-21T14:44:09.088Z,95484.75
2019-04-21T14:46:45.241Z,95484.30
2019-04-21T14:49:19.335Z,95486.35
2019-04-21T14:51:55.090Z,95477.09
2019-04-21T14:54:51.020Z,95482.06
2019-04-21T14:57:18.964Z,95490.38
2019-04-21T14:59:46.962Z,95473.13
2019-04-21T15:02:16.010Z,95472.31
2019-04-21T15:04:43.988Z,95474.48
2019-04-21T15:07:11.373Z,95474.98
2019-04-21T15:09:40.819Z,95470.23
2019-04-21T15:12:09.962Z,95468.50
2019-04-21T15:14:38.041Z,95467.67
2019-04-21T15:17:07.091Z,95465.16
2019-04-21T15:19:34.876Z,95463.93
2019-04-21T15:22:02.690Z,95467.00
2019-04-21T15:24:30.290Z,95470.30
2019-04-21T15:27:00.993Z,95469.86
2019-04-21T15:29:29.020Z,95459.83
2019-04-21T15:31:56.889Z,95463.23
2019-04-21T15:34:25.997Z,95470.08
2019-04-21T15:36:54.047Z,95456.31
2019-04-21T15:39:21.576Z,95447.58
2019-04-21T15:41:50.488Z,95454.23
2019-04-21T15:44:18.644Z,95449.24
2019-04-21T15:46:52.099Z,95444.11
2019-04-21T15:49:20.794Z,95445.32
2019-04-21T15:51:49.583Z,95440.22
2019-04-21T15:54:18.527Z,95438.55
2019-04-21T15:56:51.446Z,95436.63
2019-04-21T15:59:50.763Z,95439.42
2019-04-21T16:02:44.645Z,95437.19
2019-04-21T16:05:14.972Z,95432.62
2019-04-21T16:07:42.635Z,95436.30
2019-04-21T16:10:21.308Z,95426.30
2019-04-21T16:12:41.393Z,95429.20
2019-04-21T16:15:10.451Z,95427.36
2019-04-21T16:17:39.273Z,95424.61
2019-04-21T16:20:08.098Z,95422.61
2019-04-21T16:22:36.849Z,95422.71
2019-04-21T16:25:05.928Z,95422.17
2019-04-21T16:27:33.633Z,95422.71
2019-04-21T16:30:01.972Z,95421.18
2019-04-21T16:32:30.172Z,95422.37
2019-04-21T16:35:03.907Z,95414.41
2019-04-21T16:37:27.818Z,95416.84
2019-04-21T16:39:55.725Z,95418.47
2019-04-21T16:42:24.503Z,95418.06
2019-04-21T16:44:52.767Z,95414.16
2019-04-21T16:47:21.518Z,95414.77
2019-04-21T16:49:49.857Z,95408.30
2019-04-21T16:52:23.645Z,95414.25
2019-04-21T16:54:56.105Z,95405.45
2019-04-21T16:57:31.062Z,95405.09
2019-04-21T17:00:04.416Z,95406.21
2019-04-21T17:02:32.494Z,95411.27
2019-04-21T17:05:00.428Z,95406.15
2019-04-21T17:07:28.211Z,95410.72
2019-04-21T17:09:56.880Z,95409.57
2019-04-21T17:12:26.314Z,95419.32
2019-04-21T17:15:10.836Z,95412.09
2019-04-21T17:17:43.025Z,95417.59
2019-04-21T17:19:55.700Z,95424.62
2019-04-21T17:22:23.615Z,95423.34
2019-04-21T17:24:52.561Z,95424.55
2019-04-21T17:27:20.781Z,95424.29
2019-04-21T17:29:48.650Z,95420.74
2019-04-21T17:32:16.546Z,95424.19
2019-04-21T17:34:44.009Z,95429.27
2019-04-21T17:37:12.766Z,95427.83
2019-04-21T17:39:40.777Z,95431.20
2019-04-21T17:42:18.669Z,95431.47
2019-04-21T17:44:37.689Z,95430.34
2019-04-21T17:47:13.267Z,95431.66
2019-04-21T17:49:34.889Z,95440.45
2019-04-21T17:52:22.129Z,95437.52
2019-04-21T17:55:10.353Z,95430.78
2019-04-21T17:57:52.162Z,95434.58
2019-04-21T18:00:26.135Z,95444.36
2019-04-21T18:02:53.441Z,95444.95
2019-04-21T18:05:21.100Z,95445.24
2019-04-21T18:07:47.820Z,95455.48
2019-04-21T18:10:15.918Z,95451.16
2019-04-21T18:12:40.028Z,95450.02
2019-04-21T18:15:16.695Z,95454.11
2019-04-21T18:17:27.002Z,95445.17
2019-04-21T18:19:55.623Z,95454.05
2019-04-21T18:22:52.984Z,95446.75
2019-04-21T18:25:32.030Z,95453.63
2019-04-21T18:27:52.499Z,95467.61
2019-04-21T18:30:40.211Z,95470.06
2019-04-21T18:33:15.615Z,95458.46
2019-04-21T18:36:07.092Z,95471.77
2019-04-21T18:39:14.262Z,95467.38
2019-04-21T18:41:32.211Z,95474.59
2019-04-21T18:44:35.607Z,95474.42
2019-04-21T18:47:14.767Z,95468.84
2019-04-21T18:49:31.136Z,95466.58
2019-04-21T18:52:22.505Z,95482.30
2019-04-21T18:54:58.566Z,95479.41
2019-04-21T18:57:22.848Z,95478.22
2019-04-21T18:59:45.186Z,95481.87
2019-04-21T19:02:14.891Z,95475.36
2019-04-21T19:04:42.345Z,95489.12
2019-04-21T19:07:19.868Z,95490.02
2019-04-21T19:10:16.070Z,95490.04
2019-04-21T19:12:42.427Z,95493.94
2019-04-21T19:14:56.669Z,95499.84
2019-04-21T19:20:01.946Z,95505.41
2019-04-21T19:22:26.754Z,95502.09
2019-04-21T19:25:00.824Z,95508.59
2019-04-21T19:27:40.253Z,95504.21
2019-04-21T19:30:18.887Z,95506.19
2019-04-21T19:32:26.711Z,95503.16
2019-04-21T19:34:40.364Z,95501.19
2019-04-21T19:37:10.858Z,95498.33
2019-04-21T19:39:48.494Z,95493.05
2019-04-21T19:42:12.770Z,95494.97
2019-04-21T19:44:47.291Z,95499.30
2019-04-21T19:47:25.804Z,95498.70
2019-04-21T19:49:51.361Z,95493.98
2019-04-21T19:52:06.557Z,95501.79
2019-04-21T19:54:35.831Z,95494.06
2019-04-21T19:57:00.751Z,95490.58
2019-04-21T19:59:36.632Z,95488.95
2019-04-21T20:01:58.325Z,95495.77
2019-04-21T20:04:34.118Z,95483.85
2019-04-21T20:07:02.753Z,95483.22
2019-04-21T20:09:40.614Z,95451.34
2019-04-21T20:12:09.601Z,95488.78
2019-04-21T20:15:00.286Z,95478.99
2019-04-21T20:17:08.309Z,95479.44
2019-04-21T20:19:24.786Z,95479.70
2019-04-21T20:21:53.500Z,95479.59
2019-04-21T20:24:26.549Z,95479.33
2019-04-21T20:27:01.277Z,95469.56
2019-04-21T20:29:38.908Z,95475.88
2019-04-21T20:32:04.595Z,95472.43
2019-04-21T20:34:38.698Z,95475.87
2019-04-21T20:37:12.805Z,95483.08
2019-04-21T20:39:23.026Z,95473.67
2019-04-21T20:42:01.804Z,95477.39
2019-04-21T20:44:29.866Z,95477.91
2019-04-21T20:46:59.114Z,95480.78
2019-04-21T20:49:27.122Z,95480.17
2019-04-21T20:52:06.215Z,95486.47
2019-04-21T20:54:28.832Z,95479.69
2019-04-21T20:57:02.771Z,95483.98
2019-04-21T20:59:25.121Z,95486.83
2019-04-21T21:02:02.922Z,95473.50
2019-04-21T21:04:21.670Z,95499.47
2019-04-21T21:07:03.274Z,95483.44
2019-04-21T21:09:25.586Z,95486.09
2019-04-21T21:12:11.414Z,95493.11
2019-04-21T21:14:30.857Z,95492.52
2019-04-21T21:17:01.245Z,95489.63
2019-04-21T21:19:29.093Z,95489.82
2019-04-21T21:21:49.710Z,95486.70
2019-04-21T21:24:32.993Z,95488.20
2019-04-21T21:26:54.623Z,95484.48
2019-04-21T21:29:25.232Z,95492.00
2019-04-21T21:31:55.545Z,95481.75
2019-04-21T21:34:27.878Z,95485.80
2019-04-21T21:36:53.781Z,95482.03
2019-04-21T21:39:23.380Z,95492.98
2019-04-21T21:41:40.997Z,95487.95
2019-04-21T21:44:11.311Z,95485.74
2019-04-21T21:46:49.324Z,95487.01
2019-04-21T21:49:20.757Z,95485.45
2019-04-21T21:51:43.261Z,95480.01
2019-04-21T21:54:04.642Z,95483.32
2019-04-21T21:56:32.575Z,95484.98
2019-04-21T21:59:01.188Z,95481.16
2019-04-21T22:01:37.938Z,95486.06
2019-04-21T22:04:08.441Z,95479.66
2019-04-21T22:06:41.001Z,95481.45
2019-04-21T22:08:58.508Z,95482.92
2019-04-21T22:11:26.348Z,95477.50
2019-04-21T22:14:01.880Z,95483.36
2019-04-21T22:16:39.054Z,95482.65
2019-04-21T22:19:13.280Z,95475.25
2019-04-21T22:21:44.229Z,95482.91
2019-04-21T22:24:00.301Z,95491.41
2019-04-21T22:26:21.156Z,95486.22
2019-04-21T22:28:49.672Z,95491.42
2019-04-21T22:31:22.912Z,95483.84
2019-04-21T22:33:50.200Z,95487.20
2019-04-21T22:36:29.969Z,95479.66
2019-04-21T22:39:05.211Z,95476.65
2019-04-21T22:41:28.161Z,95476.39
2019-04-21T22:43:48.229Z,95472.80
2019-04-21T22:46:15.454Z,95470.41
2019-04-21T22:48:45.280Z,95472.70
2019-04-21T22:51:20.635Z,95475.81
2019-04-21T22:53:47.216Z,95477.93
2019-04-21T22:56:18.439Z,95480.50
2019-04-21T22:58:44.001Z,95476.52
2019-04-21T23:01:11.011Z,95473.67
2019-04-21T23:03:40.170Z,95461.65
2019-04-21T23:06:16.847Z,95465.06
2019-04-21T23:08:41.678Z,95464.70
2019-04-21T23:11:10.910Z,95465.80
2019-04-21T23:13:36.474Z,95459.40
2019-04-21T23:16:06.194Z,95453.41
2019-04-21T23:18:46.440Z,95461.20
2019-04-21T23:21:16.342Z,95454.55
2019-04-21T23:23:49.943Z,95452.45
2019-04-21T23:26:21.973Z,95454.05
2019-04-21T23:28:52.461Z,95441.90
2019-04-21T23:31:25.966Z,95447.02
2019-04-21T23:33:31.458Z,95443.68
2019-04-21T23:36:09.664Z,95441.62
2019-04-21T23:38:36.844Z,95447.11
2019-04-21T23:41:01.801Z,95446.31
2019-04-21T23:43:31.094Z,95447.16
2019-04-21T23:45:57.442Z,95442.45
2019-04-21T23:48:38.996Z,95439.64
2019-04-21T23:51:10.883Z,95448.73
2019-04-21T23:53:25.739Z,95435.02
2019-04-21T23:55:53.338Z,95442.81
2019-04-21T23:58:25.251Z,95441.83
